Time;durP1;ratioP1;P1;durP2;ratioP2;P2;SDS_P1;SDS_P2;PMS_P1;PMS_P2;Temp;Humidity;BMP_temperature;BMP_pressure;BME280_temperature;BME280_humidity;BME280_pressure;Samples;Min_cycle;Max_cycle;Signal;HPM_P1;HPM_P2
2023/04/26 00:02:10;;;;;;;8.27;2.95;;;3.90;99.90;;;;;;4946634;28;20940;-64
2023/04/26 00:04:37;;;;;;;11.68;3.08;;;3.80;99.90;;;;;;4957008;28;20050;-64
2023/04/26 00:07:02;;;;;;;10.07;2.78;;;3.90;99.90;;;;;;4949716;28;20042;-64
2023/04/26 00:09:28;;;;;;;10.20;2.70;;;3.80;99.90;;;;;;4957277;28;20055;-64
2023/04/26 00:11:54;;;;;;;9.70;2.67;;;3.90;99.90;;;;;;4918266;28;20055;-64
2023/04/26 00:14:20;;;;;;;10.75;3.00;;;3.90;99.90;;;;;;4943399;28;20050;-64
2023/04/26 00:16:46;;;;;;;6.78;2.60;;;3.80;99.90;;;;;;4934601;28;20077;-64
2023/04/26 00:19:12;;;;;;;10.75;2.50;;;3.90;99.90;;;;;;4959058;28;20042;-64
2023/04/26 00:21:38;;;;;;;9.13;2.90;;;3.90;99.90;;;;;;4955358;28;20562;-64
2023/04/26 00:24:04;;;;;;;7.55;2.50;;;3.90;99.90;;;;;;4960711;28;20046;-64
2023/04/26 00:26:30;;;;;;;7.65;2.65;;;3.90;99.90;;;;;;4957897;28;21692;-64
2023/04/26 00:28:56;;;;;;;9.65;2.90;;;3.90;99.90;;;;;;4967274;28;20047;-64
2023/04/26 00:31:22;;;;;;;7.22;2.35;;;4.00;99.90;;;;;;4955627;28;20461;-64
2023/04/26 00:33:48;;;;;;;9.05;2.80;;;4.00;99.90;;;;;;4957350;28;20047;-64
2023/04/26 00:36:17;;;;;;;14.10;3.30;;;3.90;99.90;;;;;;4957041;28;20060;-64
2023/04/26 00:38:44;;;;;;;6.82;2.22;;;3.90;99.90;;;;;;4929891;28;20130;-64
2023/04/26 00:41:10;;;;;;;13.45;3.05;;;3.90;99.90;;;;;;4960154;28;20058;-64
2023/04/26 00:43:36;;;;;;;7.05;2.38;;;3.90;99.90;;;;;;4946869;28;20052;-64
2023/04/26 00:46:02;;;;;;;10.63;2.85;;;3.90;99.90;;;;;;4956823;28;20519;-64
2023/04/26 00:48:28;;;;;;;10.27;3.28;;;3.90;99.90;;;;;;4955850;28;20039;-64
2023/04/26 00:50:54;;;;;;;8.95;2.70;;;3.90;99.90;;;;;;4953677;28;20035;-64
2023/04/26 00:53:21;;;;;;;5.82;2.92;;;3.90;99.90;;;;;;4954311;28;20046;-64
2023/04/26 00:55:47;;;;;;;5.07;2.30;;;3.90;99.90;;;;;;4930146;28;20098;-64
2023/04/26 00:58:13;;;;;;;7.80;2.72;;;3.90;99.90;;;;;;4958064;28;20050;-64
2023/04/26 01:00:39;;;;;;;8.77;2.28;;;4.00;99.90;;;;;;4952714;28;20050;-64
2023/04/26 01:03:05;;;;;;;8.55;2.65;;;4.00;99.90;;;;;;4961086;28;20054;-64
2023/04/26 01:05:31;;;;;;;9.45;2.35;;;4.00;99.90;;;;;;4950684;28;20077;-64
2023/04/26 01:07:58;;;;;;;9.20;2.65;;;4.00;99.90;;;;;;4965811;28;20421;-64
2023/04/26 01:10:24;;;;;;;7.32;2.35;;;4.00;99.90;;;;;;4958717;28;20062;-64
2023/04/26 01:12:50;;;;;;;9.57;3.30;;;4.00;99.90;;;;;;4949516;28;20048;-64
2023/04/26 01:15:16;;;;;;;7.82;2.70;;;4.00;99.90;;;;;;4981508;28;20042;-64
2023/04/26 01:17:46;;;;;;;5.85;2.95;;;3.90;99.90;;;;;;4964978;28;20070;-64
2023/04/26 01:20:12;;;;;;;10.27;3.00;;;3.90;99.90;;;;;;4961136;28;20955;-64
2023/04/26 01:22:38;;;;;;;10.43;3.22;;;3.90;99.90;;;;;;4963604;28;20065;-64
2023/04/26 01:25:07;;;;;;;6.78;2.47;;;3.90;99.90;;;;;;4965430;28;20038;-64
2023/04/26 01:27:34;;;;;;;8.18;3.10;;;3.80;99.90;;;;;;4951890;28;20049;-64
2023/04/26 01:30:00;;;;;;;7.00;3.40;;;3.80;99.90;;;;;;4960131;28;20046;-64
2023/04/26 01:32:26;;;;;;;11.50;2.80;;;3.90;99.90;;;;;;4962471;28;20113;-64
2023/04/26 01:34:52;;;;;;;8.20;2.83;;;3.80;99.90;;;;;;4947704;28;20073;-64
2023/04/26 01:37:17;;;;;;;9.45;2.95;;;3.80;99.90;;;;;;4963129;28;20409;-64
2023/04/26 01:39:43;;;;;;;8.63;2.60;;;3.90;99.90;;;;;;4962273;28;20107;-64
2023/04/26 01:42:09;;;;;;;4.97;2.58;;;3.90;99.90;;;;;;4975117;28;20065;-64
2023/04/26 01:44:35;;;;;;;7.65;3.03;;;3.80;99.90;;;;;;4969675;28;20042;-64
2023/04/26 01:47:00;;;;;;;10.27;3.42;;;3.90;99.90;;;;;;4959080;28;20132;-64
2023/04/26 01:49:26;;;;;;;11.07;2.70;;;3.80;99.90;;;;;;4952593;28;20070;-64
2023/04/26 01:51:52;;;;;;;8.60;3.28;;;3.80;99.90;;;;;;4950007;28;20176;-64
2023/04/26 01:54:18;;;;;;;10.20;2.95;;;3.80;99.90;;;;;;4951258;28;20786;-64
2023/04/26 01:56:43;;;;;;;8.30;3.17;;;3.80;99.90;;;;;;4959351;28;20081;-64
2023/04/26 01:59:09;;;;;;;9.50;3.20;;;3.80;99.90;;;;;;4934270;28;20135;-64
2023/04/26 02:01:35;;;;;;;8.98;2.67;;;3.70;99.90;;;;;;4963379;28;20584;-64
2023/04/26 02:04:00;;;;;;;15.23;3.10;;;3.70;99.90;;;;;;4962972;28;20066;-64
2023/04/26 02:06:26;;;;;;;13.43;3.20;;;3.70;99.90;;;;;;4958289;28;20045;-64
2023/04/26 02:08:52;;;;;;;9.95;3.13;;;3.70;99.90;;;;;;4959096;28;20043;-64
2023/04/26 02:11:18;;;;;;;10.45;2.85;;;3.70;99.90;;;;;;4941618;28;20059;-64
2023/04/26 02:13:44;;;;;;;11.73;2.67;;;3.70;99.90;;;;;;4949994;28;20049;-64
2023/04/26 02:16:10;;;;;;;12.35;3.10;;;3.70;99.90;;;;;;4952224;28;20114;-64
2023/04/26 02:18:36;;;;;;;10.10;2.40;;;3.70;99.90;;;;;;4964141;28;20051;-64
2023/04/26 02:21:01;;;;;;;4.45;2.28;;;3.70;99.90;;;;;;4945385;28;20755;-64
2023/04/26 02:23:27;;;;;;;11.07;2.85;;;3.70;99.90;;;;;;4961048;28;20051;-64
2023/04/26 02:25:53;;;;;;;10.13;2.58;;;3.70;99.90;;;;;;4947223;28;20045;-64
2023/04/26 02:28:18;;;;;;;9.25;2.60;;;3.70;99.90;;;;;;4931980;28;20417;-64
2023/04/26 02:30:44;;;;;;;5.95;2.42;;;3.70;99.90;;;;;;4963968;28;20050;-64
2023/04/26 02:33:10;;;;;;;10.98;2.58;;;3.70;99.90;;;;;;4962510;28;20061;-64
2023/04/26 02:35:36;;;;;;;5.80;2.55;;;3.70;99.90;;;;;;4969198;28;20133;-64
2023/04/26 02:38:02;;;;;;;6.15;2.45;;;3.70;99.90;;;;;;4958107;28;20429;-64
2023/04/26 02:40:29;;;;;;;6.45;2.65;;;3.70;99.90;;;;;;4974850;28;20046;-64
2023/04/26 02:42:55;;;;;;;9.00;2.38;;;3.70;99.90;;;;;;4960000;28;20049;-64
2023/04/26 02:45:21;;;;;;;8.25;2.38;;;3.70;99.90;;;;;;4958722;28;20054;-64
2023/04/26 02:47:47;;;;;;;9.63;3.03;;;3.70;99.90;;;;;;4964019;28;20043;-64
2023/04/26 02:50:13;;;;;;;7.95;2.78;;;3.70;99.90;;;;;;4960588;28;20039;-64
2023/04/26 02:52:38;;;;;;;7.72;2.90;;;3.60;99.90;;;;;;4963499;28;20552;-64
2023/04/26 02:55:05;;;;;;;5.50;2.50;;;3.60;99.90;;;;;;4977340;28;20050;-64
2023/04/26 02:57:31;;;;;;;10.38;2.92;;;3.60;99.90;;;;;;4967604;28;20073;-64
2023/04/26 02:59:57;;;;;;;7.28;2.83;;;3.60;99.90;;;;;;4964193;28;20046;-64
2023/04/26 03:02:23;;;;;;;5.55;2.53;;;3.60;99.90;;;;;;4958688;28;20050;-64
2023/04/26 03:04:49;;;;;;;8.50;2.25;;;3.60;99.90;;;;;;4957334;28;20042;-64
2023/04/26 03:07:15;;;;;;;5.30;2.42;;;3.60;99.90;;;;;;4956562;28;20046;-64
2023/04/26 03:09:41;;;;;;;10.43;2.83;;;3.60;99.90;;;;;;4953079;28;20057;-64
2023/04/26 03:12:08;;;;;;;9.35;3.38;;;3.70;99.90;;;;;;4953765;28;20817;-64
2023/04/26 03:14:34;;;;;;;8.68;2.50;;;3.70;99.90;;;;;;4963815;28;20041;-64
2023/04/26 03:17:00;;;;;;;9.90;2.58;;;3.70;99.90;;;;;;4952766;28;20053;-64
2023/04/26 03:19:27;;;;;;;9.30;2.22;;;3.70;99.90;;;;;;4954973;28;20046;-64
2023/04/26 03:21:53;;;;;;;11.77;2.90;;;3.70;99.90;;;;;;4954982;28;20054;-64
2023/04/26 03:24:19;;;;;;;6.57;2.38;;;3.80;99.90;;;;;;4955129;28;20125;-64
2023/04/26 03:26:45;;;;;;;9.50;2.50;;;3.80;99.90;;;;;;4956152;28;22284;-64
2023/04/26 03:29:12;;;;;;;6.85;2.42;;;3.80;99.90;;;;;;4936947;28;20077;-64
2023/04/26 03:31:38;;;;;;;8.20;2.47;;;3.80;99.90;;;;;;4956786;28;21522;-64
2023/04/26 03:34:04;;;;;;;6.95;2.40;;;3.80;99.90;;;;;;4943800;28;20034;-64
2023/04/26 03:36:29;;;;;;;5.35;2.28;;;3.70;99.90;;;;;;4956316;28;20039;-64
2023/04/26 03:38:56;;;;;;;11.57;3.15;;;3.80;99.90;;;;;;4973271;28;20043;-64
2023/04/26 03:41:22;;;;;;;8.73;2.33;;;3.80;99.90;;;;;;4959420;28;20070;-64
2023/04/26 03:43:48;;;;;;;12.50;2.72;;;3.80;99.90;;;;;;4953146;28;20050;-64
2023/04/26 03:46:14;;;;;;;6.07;2.45;;;3.80;99.90;;;;;;4954520;28;20035;-64
2023/04/26 03:48:40;;;;;;;8.18;2.40;;;3.80;99.90;;;;;;4954066;28;20046;-64
2023/04/26 03:51:06;;;;;;;5.78;2.10;;;3.80;99.90;;;;;;4956028;28;22216;-64
2023/04/26 03:53:32;;;;;;;4.80;2.00;;;3.90;99.90;;;;;;4950942;28;20039;-64
2023/04/26 03:55:58;;;;;;;5.82;2.25;;;3.80;99.90;;;;;;4959878;28;20042;-64
2023/04/26 03:58:26;;;;;;;6.93;2.28;;;3.80;99.90;;;;;;4960522;28;20070;-64
2023/04/26 04:00:57;;;;;;;9.93;2.58;;;3.90;99.90;;;;;;4957124;28;20074;-64
2023/04/26 04:03:22;;;;;;;8.45;2.55;;;3.80;99.90;;;;;;4958905;28;20547;-65
2023/04/26 04:05:48;;;;;;;6.30;2.10;;;3.80;99.90;;;;;;4953694;28;20042;-65
2023/04/26 04:08:14;;;;;;;3.80;1.95;;;3.90;99.90;;;;;;4954139;28;20046;-65
2023/04/26 04:10:41;;;;;;;4.63;1.67;;;3.90;99.90;;;;;;4959220;28;20497;-65
2023/04/26 04:13:07;;;;;;;6.88;2.10;;;3.90;99.90;;;;;;4950563;28;20394;-65
2023/04/26 04:15:33;;;;;;;5.68;1.90;;;3.90;99.90;;;;;;4947346;28;20067;-64
2023/04/26 04:17:59;;;;;;;9.32;2.40;;;3.90;99.90;;;;;;4946173;28;20047;-65
2023/04/26 04:20:24;;;;;;;7.03;2.22;;;4.00;99.90;;;;;;4935486;28;20058;-64
2023/04/26 04:22:50;;;;;;;7.35;2.40;;;4.00;99.90;;;;;;4946301;28;20074;-64
2023/04/26 04:25:16;;;;;;;12.98;2.22;;;3.90;99.90;;;;;;4948257;28;20046;-64
2023/04/26 04:27:42;;;;;;;8.25;2.38;;;4.00;99.90;;;;;;4943884;28;20137;-64
2023/04/26 04:30:08;;;;;;;5.82;2.25;;;4.00;99.90;;;;;;4937478;28;20065;-64
2023/04/26 04:32:35;;;;;;;5.22;1.98;;;4.00;99.90;;;;;;4956831;28;20047;-64
2023/04/26 04:35:01;;;;;;;8.50;2.70;;;4.00;99.90;;;;;;4945019;28;20043;-64
2023/04/26 04:37:32;;;;;;;8.68;2.42;;;4.10;99.90;;;;;;4948205;28;20077;-64
2023/04/26 04:39:58;;;;;;;9.45;2.83;;;4.10;99.90;;;;;;4936883;28;20117;-65
2023/04/26 04:42:26;;;;;;;8.50;3.15;;;4.20;99.90;;;;;;4944654;28;20074;-64
2023/04/26 04:44:52;;;;;;;7.60;2.60;;;4.20;99.90;;;;;;4927319;28;20116;-64
2023/04/26 04:47:17;;;;;;;9.93;2.55;;;4.20;99.90;;;;;;4946746;28;20071;-64
2023/04/26 04:49:44;;;;;;;6.93;2.90;;;4.30;99.90;;;;;;4915140;28;20166;-64
2023/04/26 04:52:10;;;;;;;6.55;2.50;;;4.20;99.90;;;;;;4953049;28;20145;-64
2023/04/26 04:54:36;;;;;;;6.80;2.47;;;4.30;99.90;;;;;;4945197;28;20069;-64
2023/04/26 04:57:02;;;;;;;10.38;2.63;;;4.30;99.90;;;;;;4947604;28;20046;-64
2023/04/26 04:59:28;;;;;;;7.03;2.63;;;4.30;99.90;;;;;;4943109;28;20083;-64
2023/04/26 05:01:54;;;;;;;7.95;2.78;;;4.30;99.90;;;;;;4946073;28;20838;-64
2023/04/26 05:04:20;;;;;;;7.82;2.70;;;4.30;99.90;;;;;;4943162;28;20149;-64
2023/04/26 05:06:46;;;;;;;10.00;2.80;;;4.30;99.90;;;;;;4943628;28;20043;-64
2023/04/26 05:09:12;;;;;;;13.13;2.92;;;4.30;99.90;;;;;;4940604;28;20043;-64
2023/04/26 05:11:38;;;;;;;7.80;2.55;;;4.30;99.90;;;;;;4930826;28;20089;-64
2023/04/26 05:14:03;;;;;;;8.40;2.45;;;4.30;99.90;;;;;;4942056;28;20828;-64
2023/04/26 05:16:29;;;;;;;7.97;2.45;;;4.40;99.90;;;;;;4927278;28;20098;-64
2023/04/26 05:18:55;;;;;;;8.75;2.13;;;4.30;99.90;;;;;;4941048;28;20115;-65
2023/04/26 05:21:21;;;;;;;6.13;2.60;;;4.30;99.90;;;;;;4940596;28;20096;-64
2023/04/26 05:23:47;;;;;;;7.55;2.60;;;4.30;99.90;;;;;;4941741;28;20054;-64
2023/04/26 05:26:17;;;;;;;7.65;2.70;;;4.30;99.90;;;;;;4932132;28;20053;-64
2023/04/26 05:28:42;;;;;;;6.95;2.63;;;4.30;99.90;;;;;;4946376;28;20039;-64
2023/04/26 05:31:09;;;;;;;7.25;2.67;;;4.30;99.90;;;;;;4939752;28;20082;-64
2023/04/26 05:33:34;;;;;;;5.10;2.60;;;4.30;99.90;;;;;;4944751;28;20070;-64
2023/04/26 05:36:01;;;;;;;9.02;2.83;;;4.30;99.90;;;;;;4940467;28;20130;-64
2023/04/26 05:38:27;;;;;;;11.00;2.90;;;4.40;99.90;;;;;;4944011;28;20050;-64
2023/04/26 05:40:53;;;;;;;4.85;2.47;;;4.40;99.90;;;;;;4940981;28;20170;-64
2023/04/26 05:43:19;;;;;;;7.60;2.80;;;4.50;99.90;;;;;;4948650;28;20046;-64
2023/04/26 05:45:55;;;;;;;6.60;2.60;;;4.50;99.90;;;;;;4940084;28;20069;-64
2023/04/26 05:48:23;;;;;;;9.70;2.88;;;4.60;99.90;;;;;;4949677;28;20087;-64
2023/04/26 05:50:49;;;;;;;8.07;2.75;;;4.60;99.90;;;;;;4945432;28;20190;-64
2023/04/26 05:53:15;;;;;;;10.45;3.80;;;4.70;99.90;;;;;;4931249;28;20062;-64
2023/04/26 05:55:41;;;;;;;8.05;2.90;;;4.70;99.90;;;;;;4941662;28;20066;-64
2023/04/26 05:58:08;;;;;;;8.15;2.95;;;4.80;99.90;;;;;;4942629;28;20078;-64
2023/04/26 06:00:35;;;;;;;7.10;2.90;;;4.80;99.90;;;;;;4955304;28;20527;-64
2023/04/26 06:03:01;;;;;;;8.00;3.13;;;4.90;99.90;;;;;;4959328;28;20083;-64
2023/04/26 06:05:26;;;;;;;6.38;2.95;;;5.00;99.90;;;;;;4946498;28;20826;-64
2023/04/26 06:07:53;;;;;;;7.65;2.95;;;5.00;99.90;;;;;;4955409;28;20141;-64
2023/04/26 06:10:19;;;;;;;5.68;2.58;;;5.10;99.90;;;;;;4953293;28;20043;-65
2023/04/26 06:12:45;;;;;;;6.13;2.75;;;5.10;99.90;;;;;;4941927;28;20070;-64
2023/04/26 06:15:11;;;;;;;8.73;2.40;;;5.20;99.90;;;;;;4952698;28;20142;-64
2023/04/26 06:17:37;;;;;;;6.15;2.47;;;5.30;99.90;;;;;;4954950;28;20138;-64
2023/04/26 06:20:04;;;;;;;8.63;2.20;;;5.40;99.90;;;;;;4955807;28;20039;-64
2023/04/26 06:22:30;;;;;;;5.00;2.72;;;5.40;99.90;;;;;;4955573;28;20053;-64
2023/04/26 06:24:55;;;;;;;9.90;3.35;;;5.50;99.90;;;;;;4954002;28;20398;-64
2023/04/26 06:27:21;;;;;;;6.28;2.60;;;5.60;99.90;;;;;;4939288;28;20944;-64
2023/04/26 06:29:47;;;;;;;9.45;2.17;;;5.60;99.90;;;;;;4957801;28;20074;-65
2023/04/26 06:32:12;;;;;;;9.20;2.92;;;5.70;99.90;;;;;;4955947;28;20413;-65
2023/04/26 06:34:38;;;;;;;5.15;2.65;;;5.70;99.90;;;;;;4960347;28;20382;-65
2023/04/26 06:37:04;;;;;;;12.05;3.05;;;5.80;99.90;;;;;;4950074;28;20058;-64
2023/04/26 06:39:30;;;;;;;13.63;2.30;;;5.80;99.90;;;;;;4948192;28;20050;-64
2023/04/26 06:41:56;;;;;;;4.30;2.53;;;5.80;99.90;;;;;;4925901;28;20050;-64
2023/04/26 06:44:22;;;;;;;8.52;2.85;;;5.80;99.90;;;;;;4947197;28;20043;-64
2023/04/26 06:46:48;;;;;;;6.68;2.67;;;5.80;99.90;;;;;;4957646;28;20118;-65
2023/04/26 06:49:14;;;;;;;9.20;2.40;;;5.80;99.90;;;;;;4945858;28;20038;-65
2023/04/26 06:51:40;;;;;;;8.20;2.60;;;5.90;99.90;;;;;;4942552;28;20043;-65
2023/04/26 06:54:06;;;;;;;7.18;2.40;;;6.00;99.90;;;;;;4941032;28;20058;-65
2023/04/26 06:56:32;;;;;;;6.50;2.35;;;6.10;99.90;;;;;;4963564;28;20097;-65
2023/04/26 06:59:03;;;;;;;7.45;2.40;;;6.20;99.90;;;;;;4942744;28;20133;-65
2023/04/26 07:01:32;;;;;;;6.82;2.13;;;6.20;99.90;;;;;;4954745;28;20077;-65
2023/04/26 07:04:00;;;;;;;8.88;2.75;;;6.10;99.90;;;;;;4965020;28;20161;-64
2023/04/26 07:06:26;;;;;;;7.50;3.05;;;6.10;99.90;;;;;;4964495;28;20040;-65
2023/04/26 07:08:52;;;;;;;11.52;3.05;;;6.10;99.90;;;;;;4954613;28;20047;-65
2023/04/26 07:11:18;;;;;;;6.43;2.50;;;6.10;99.90;;;;;;4945423;28;20869;-65
2023/04/26 07:13:44;;;;;;;11.27;2.90;;;6.10;99.90;;;;;;4943730;28;20042;-65
2023/04/26 07:16:09;;;;;;;8.73;3.35;;;6.20;99.90;;;;;;4961415;28;20070;-65
2023/04/26 07:18:35;;;;;;;6.22;2.83;;;6.20;99.90;;;;;;4958307;28;20479;-65
2023/04/26 07:21:01;;;;;;;9.05;2.78;;;6.30;99.90;;;;;;4959686;28;20130;-65
2023/04/26 07:23:28;;;;;;;10.25;3.05;;;6.50;99.90;;;;;;4955454;28;20047;-65
2023/04/26 07:25:54;;;;;;;9.63;3.40;;;6.60;99.90;;;;;;4958276;28;20047;-65
2023/04/26 07:28:20;;;;;;;7.50;3.00;;;6.80;99.90;;;;;;4961560;28;20048;-64
2023/04/26 07:30:46;;;;;;;7.13;2.80;;;6.90;99.90;;;;;;4958582;28;20031;-65
2023/04/26 07:33:11;;;;;;;9.23;3.00;;;7.10;99.90;;;;;;4956140;28;20122;-65
2023/04/26 07:35:37;;;;;;;10.57;2.78;;;7.20;99.90;;;;;;4942405;28;20054;-65
2023/04/26 07:38:03;;;;;;;10.30;2.72;;;7.40;99.90;;;;;;4939721;28;20039;-65
2023/04/26 07:40:30;;;;;;;12.43;2.75;;;7.40;99.90;;;;;;4958210;28;20047;-65
2023/04/26 07:42:55;;;;;;;8.60;2.50;;;7.50;99.90;;;;;;4958111;28;20058;-66
2023/04/26 07:45:21;;;;;;;7.88;2.65;;;7.60;99.90;;;;;;4942854;28;20042;-65
2023/04/26 07:47:47;;;;;;;10.00;2.28;;;7.60;99.90;;;;;;4955503;28;20481;-66
2023/04/26 07:50:13;;;;;;;9.05;2.50;;;7.70;99.90;;;;;;4959794;28;20043;-65
2023/04/26 07:52:39;;;;;;;8.93;2.78;;;7.90;99.90;;;;;;4949727;28;20101;-66
2023/04/26 07:55:05;;;;;;;10.80;2.47;;;8.00;99.90;;;;;;4916684;28;20137;-65
2023/04/26 07:57:31;;;;;;;6.82;2.40;;;8.10;99.90;;;;;;4948062;28;20043;-66
2023/04/26 07:59:57;;;;;;;9.23;2.83;;;8.20;99.90;;;;;;4952900;28;20490;-65
2023/04/26 08:02:23;;;;;;;13.77;2.67;;;8.20;99.90;;;;;;4955798;28;20050;-66
2023/04/26 08:04:51;;;;;;;8.10;2.50;;;8.30;99.90;;;;;;4960318;28;20039;-66
2023/04/26 08:07:18;;;;;;;9.23;2.50;;;8.30;99.90;;;;;;4942799;28;20047;-66
2023/04/26 08:09:44;;;;;;;13.32;2.45;;;8.50;99.90;;;;;;4931835;28;20047;-65
2023/04/26 08:12:11;;;;;;;6.68;2.60;;;8.40;99.90;;;;;;4956768;28;20059;-65
2023/04/26 08:14:37;;;;;;;7.60;2.45;;;8.30;99.90;;;;;;4957516;28;20071;-66
2023/04/26 08:17:04;;;;;;;12.05;3.35;;;8.10;99.90;;;;;;4956322;28;20081;-66
2023/04/26 08:19:32;;;;;;;11.93;2.80;;;8.10;99.90;;;;;;4964447;28;20071;-65
2023/04/26 08:21:58;;;;;;;11.95;2.75;;;8.00;99.90;;;;;;4960029;28;20051;-65
2023/04/26 08:24:24;;;;;;;8.35;2.70;;;8.00;99.90;;;;;;4943442;28;20458;-65
2023/04/26 08:26:49;;;;;;;12.90;2.67;;;8.00;99.90;;;;;;4957318;28;20081;-65
2023/04/26 08:29:16;;;;;;;9.68;2.83;;;8.10;99.90;;;;;;4945460;28;20043;-65
2023/04/26 08:31:41;;;;;;;11.10;2.58;;;8.20;99.90;;;;;;4957520;28;20561;-65
2023/04/26 08:34:12;;;;;;;9.85;2.63;;;8.20;99.90;;;;;;4960711;28;20129;-65
2023/04/26 08:36:38;;;;;;;13.52;2.60;;;8.30;99.90;;;;;;4960057;28;20054;-65
2023/04/26 08:39:04;;;;;;;9.77;2.35;;;8.40;99.90;;;;;;4955656;28;20051;-65
2023/04/26 08:41:35;;;;;;;11.13;2.65;;;8.40;99.90;;;;;;4961571;28;20108;-65
2023/04/26 08:44:04;;;;;;;9.43;2.33;;;8.40;99.90;;;;;;4964046;28;20039;-65
2023/04/26 08:46:51;;;;;;;14.60;2.63;;;8.40;99.90;;;;;;4940390;28;20117;-65
2023/04/26 08:49:35;;;;;;;8.98;2.55;;;8.40;99.90;;;;;;4960924;28;20542;-65
2023/04/26 08:52:03;;;;;;;10.20;2.45;;;8.30;99.90;;;;;;4943379;28;20066;-65
2023/04/26 08:54:30;;;;;;;10.18;2.17;;;8.30;99.90;;;;;;4960395;28;20098;-65
2023/04/26 08:56:58;;;;;;;8.98;2.20;;;8.30;99.90;;;;;;4960073;28;20049;-65
2023/04/26 08:59:24;;;;;;;10.15;2.08;;;8.30;99.90;;;;;;4958948;28;20047;-65
2023/04/26 09:01:52;;;;;;;12.68;2.08;;;8.40;99.90;;;;;;4944941;28;20078;-65
2023/04/26 09:04:17;;;;;;;8.52;2.00;;;8.40;99.90;;;;;;4958899;28;20441;-65
2023/04/26 09:06:43;;;;;;;12.75;2.45;;;8.50;99.90;;;;;;4956365;28;20043;-65
2023/04/26 09:09:12;;;;;;;10.02;2.53;;;8.40;99.90;;;;;;4955563;28;20405;-65
2023/04/26 09:12:15;;;;;;;6.15;2.85;;;8.40;99.90;;;;;;4957428;28;20097;-65
2023/04/26 09:14:41;;;;;;;6.93;2.45;;;8.30;99.90;;;;;;4894294;29;20056;-65
2023/04/26 09:17:24;;;;;;;7.90;2.90;;;8.20;99.90;;;;;;4945689;28;20093;-65
2023/04/26 09:19:50;;;;;;;9.73;2.83;;;8.20;99.90;;;;;;4961432;28;20446;-65
2023/04/26 09:22:27;;;;;;;6.72;3.08;;;8.10;99.90;;;;;;4954326;28;20050;-65
2023/04/26 09:24:52;;;;;;;5.28;2.88;;;8.10;99.90;;;;;;4963466;28;20047;-65
2023/04/26 09:27:19;;;;;;;8.02;2.60;;;8.10;99.90;;;;;;4965173;28;20035;-65
2023/04/26 09:30:16;;;;;;;12.23;3.50;;;8.10;99.90;;;;;;4962438;28;20124;-65
2023/04/26 09:32:45;;;;;;;13.60;2.78;;;8.20;99.90;;;;;;4943798;28;20068;-65
2023/04/26 09:35:28;;;;;;;6.15;2.40;;;8.30;99.90;;;;;;4965779;28;20046;-65
2023/04/26 09:38:05;;;;;;;9.32;2.85;;;8.30;99.90;;;;;;4962718;28;20124;-65
2023/04/26 09:40:37;;;;;;;12.63;3.03;;;8.40;99.90;;;;;;4961332;28;20050;-65
2023/04/26 09:43:21;;;;;;;9.95;2.95;;;8.50;99.90;;;;;;4960996;28;20043;-65
2023/04/26 09:45:55;;;;;;;10.80;3.05;;;8.60;99.90;;;;;;4964687;28;20053;-65
2023/04/26 09:48:33;;;;;;;10.55;2.80;;;8.70;99.90;;;;;;4946076;28;20132;-66
2023/04/26 09:51:02;;;;;;;5.20;2.45;;;8.80;99.90;;;;;;4947731;28;20074;-65
2023/04/26 09:53:30;;;;;;;6.95;1.75;;;9.00;99.90;;;;;;4965181;28;20054;-64
2023/04/26 09:56:04;;;;;;;7.10;1.80;;;9.10;99.90;;;;;;4959788;28;20425;-65
2023/04/26 09:58:30;;;;;;;5.50;1.60;;;9.20;99.90;;;;;;4965466;28;20452;-66
2023/04/26 10:00:57;;;;;;;6.07;1.60;;;9.20;99.90;;;;;;4945157;28;20039;-66
2023/04/26 10:03:23;;;;;;;11.07;2.55;;;9.20;99.90;;;;;;4957885;28;20054;-65
2023/04/26 10:05:49;;;;;;;6.82;1.70;;;9.20;99.90;;;;;;4963287;28;20036;-65
2023/04/26 10:08:15;;;;;;;5.82;1.48;;;9.30;99.90;;;;;;4962754;28;20609;-65
2023/04/26 10:10:42;;;;;;;4.85;1.40;;;9.30;99.90;;;;;;4950189;28;20051;-65
2023/04/26 10:13:10;;;;;;;5.30;1.88;;;9.30;99.90;;;;;;4980108;28;20065;-65
2023/04/26 10:15:38;;;;;;;7.32;1.65;;;9.20;99.90;;;;;;4952321;28;20663;-65
2023/04/26 10:18:03;;;;;;;5.60;1.50;;;9.20;99.90;;;;;;4979438;28;20137;-65
2023/04/26 10:20:30;;;;;;;6.50;1.75;;;9.30;99.90;;;;;;4971611;28;20436;-65
2023/04/26 10:23:00;;;;;;;3.97;1.50;;;9.50;99.90;;;;;;4968780;28;20046;-66
2023/04/26 10:25:37;;;;;;;6.00;1.73;;;9.90;99.90;;;;;;4968377;28;20046;-65
2023/04/26 10:28:03;;;;;;;6.32;1.20;;;10.30;99.90;;;;;;4987573;28;20062;-66
2023/04/26 10:30:29;;;;;;;7.53;1.80;;;10.40;99.90;;;;;;4957848;28;20050;-65
2023/04/26 10:32:55;;;;;;;8.20;1.60;;;10.40;99.90;;;;;;4984127;28;20146;-66
2023/04/26 10:35:26;;;;;;;8.70;2.15;;;10.20;99.90;;;;;;4967842;28;20512;-65
2023/04/26 10:38:01;;;;;;;7.07;1.77;;;10.00;99.90;;;;;;4967497;28;20046;-66
2023/04/26 10:40:38;;;;;;;9.02;1.92;;;9.80;99.90;;;;;;4948455;28;20050;-65
2023/04/26 10:43:16;;;;;;;10.50;2.20;;;9.70;99.90;;;;;;4952282;28;20053;-66
2023/04/26 10:45:42;;;;;;;7.10;1.73;;;9.60;99.90;;;;;;4969031;28;20118;-66
2023/04/26 10:48:27;;;;;;;6.63;1.50;;;9.50;99.90;;;;;;4965459;28;20121;-65
2023/04/26 10:51:07;;;;;;;4.88;1.30;;;9.50;99.90;;;;;;4966385;28;20050;-66
2023/04/26 10:53:45;;;;;;;4.63;1.30;;;9.50;99.90;;;;;;4971342;28;20045;-65
2023/04/26 10:56:26;;;;;;;8.38;1.60;;;9.60;99.90;;;;;;4974459;28;20054;-65
2023/04/26 10:59:08;;;;;;;6.53;1.67;;;9.70;99.90;;;;;;4969388;28;20039;-65
2023/04/26 11:01:33;;;;;;;7.47;1.67;;;10.00;99.90;;;;;;4967472;28;20038;-65
2023/04/26 11:04:00;;;;;;;7.90;1.60;;;10.30;99.90;;;;;;4965628;28;20114;-66
2023/04/26 11:06:45;;;;;;;5.47;1.40;;;10.30;99.90;;;;;;4965642;28;20096;-66
2023/04/26 11:09:35;;;;;;;4.05;1.27;;;10.30;99.40;;;;;;4959329;28;20061;-66
2023/04/26 11:12:03;;;;;;;6.70;1.52;;;10.30;98.70;;;;;;4953297;28;20150;-65
2023/04/26 11:14:30;;;;;;;2.55;1.27;;;10.20;98.90;;;;;;4955551;28;20125;-65
2023/04/26 11:16:56;;;;;;;3.42;1.58;;;10.20;98.60;;;;;;4961831;28;20058;-66
2023/04/26 11:19:22;;;;;;;4.80;1.30;;;10.30;98.30;;;;;;4948290;28;20039;-65
2023/04/26 11:21:48;;;;;;;4.55;1.50;;;10.30;97.30;;;;;;4956855;28;20073;-66
2023/04/26 11:24:24;;;;;;;4.85;1.88;;;10.30;97.00;;;;;;4930148;28;20134;-65
2023/04/26 11:26:53;;;;;;;4.35;1.50;;;10.30;96.80;;;;;;4960377;28;20043;-65
2023/04/26 11:29:19;;;;;;;3.88;1.90;;;10.50;96.20;;;;;;4961482;28;20035;-65
2023/04/26 11:31:52;;;;;;;3.55;1.40;;;10.60;95.40;;;;;;4962485;28;20114;-68
2023/04/26 11:34:30;;;;;;;6.78;1.65;;;10.90;95.30;;;;;;4951501;28;20815;-65
2023/04/26 11:36:56;;;;;;;4.70;1.42;;;11.20;94.80;;;;;;4947454;28;20054;-65
2023/04/26 11:39:22;;;;;;;4.78;1.67;;;11.60;93.70;;;;;;4979616;28;20395;-65
2023/04/26 11:41:48;;;;;;;5.68;1.63;;;11.80;92.40;;;;;;4968321;28;20094;-65
2023/04/26 11:44:18;;;;;;;4.13;1.63;;;12.20;92.20;;;;;;4964080;28;20052;-66
2023/04/26 11:46:47;;;;;;;6.35;1.23;;;12.30;91.00;;;;;;4968190;28;20229;-65
2023/04/26 11:49:13;;;;;;;5.25;1.50;;;12.30;90.50;;;;;;4951935;28;20125;-66
2023/04/26 11:51:39;;;;;;;3.80;1.30;;;12.30;90.30;;;;;;4958103;28;20047;-64
2023/04/26 11:54:05;;;;;;;6.63;1.38;;;12.40;90.40;;;;;;4939512;28;20071;-66
2023/04/26 11:56:31;;;;;;;4.65;1.70;;;12.50;90.60;;;;;;4936329;28;20398;-69
2023/04/26 11:58:58;;;;;;;8.68;1.65;;;12.70;89.20;;;;;;4941517;28;20084;-67
2023/04/26 12:01:24;;;;;;;8.13;1.50;;;12.90;88.00;;;;;;4938671;28;20097;-68
2023/04/26 12:03:58;;;;;;;9.50;1.52;;;13.00;87.70;;;;;;4954706;28;20047;-67
2023/04/26 12:06:40;;;;;;;4.65;1.50;;;13.20;87.10;;;;;;4947150;28;20045;-67
2023/04/26 12:09:08;;;;;;;11.63;2.40;;;13.40;85.80;;;;;;4945853;28;20049;-65
2023/04/26 12:11:33;;;;;;;5.55;1.30;;;13.50;84.60;;;;;;4952002;28;20405;-69
2023/04/26 12:14:00;;;;;;;7.05;1.55;;;13.60;83.30;;;;;;4924228;28;20055;-68
2023/04/26 12:16:26;;;;;;;4.57;1.48;;;13.60;83.90;;;;;;4946438;28;20102;-71
2023/04/26 12:18:52;;;;;;;8.15;1.40;;;13.60;85.20;;;;;;4954147;28;20047;-67
2023/04/26 12:21:19;;;;;;;6.72;1.70;;;13.50;86.20;;;;;;4957466;28;20126;-64
2023/04/26 12:23:46;;;;;;;8.77;2.15;;;13.20;86.30;;;;;;4954877;28;20135;-66
2023/04/26 12:26:12;;;;;;;5.25;1.48;;;12.90;86.80;;;;;;4937992;28;20455;-67
2023/04/26 12:28:38;;;;;;;6.05;1.40;;;12.60;86.80;;;;;;4941134;28;20122;-66
2023/04/26 12:31:05;;;;;;;10.63;1.73;;;12.30;88.10;;;;;;4940641;28;20553;-67
2023/04/26 12:33:31;;;;;;;6.07;1.52;;;11.90;90.00;;;;;;4929667;28;20046;-67
2023/04/26 12:36:05;;;;;;;5.80;1.73;;;11.70;90.90;;;;;;4948351;28;20932;-67
2023/04/26 12:38:31;;;;;;;7.63;2.15;;;11.50;91.70;;;;;;4953316;28;21006;-67
2023/04/26 12:40:57;;;;;;;8.15;1.70;;;11.40;92.70;;;;;;4936324;28;20070;-67
2023/04/26 12:43:24;;;;;;;9.85;1.80;;;11.30;92.90;;;;;;4944785;28;20097;-67
2023/04/26 12:45:51;;;;;;;5.13;1.38;;;11.20;92.70;;;;;;4934836;28;20094;-67
2023/04/26 12:48:16;;;;;;;4.80;1.20;;;11.20;92.00;;;;;;4927391;28;20478;-67
2023/04/26 12:50:43;;;;;;;10.90;1.70;;;11.10;91.30;;;;;;4954221;28;20043;-67
2023/04/26 12:53:09;;;;;;;5.22;1.23;;;11.00;91.40;;;;;;4953705;28;20054;-67
2023/04/26 12:55:35;;;;;;;6.97;1.50;;;11.10;92.20;;;;;;4960751;28;20776;-67